HALF-HOURLY OBSERVATIONS INDEX

095

Derwent Valley

BUSHY PARK (BUSHY PARK ESTATES)

Site: 095003
Alt: 27.0m
15km WNW of NEW NORFOLK


  Time     Wind        Temp  DP   Baro     Rain since   Rain past  Vis(m), Cloud(base in m), Weather
  local        km/h                         9am  last   hr   10m    
Mon 11:00    W 15/ 28  16.6  3.3  ------    0.0   0.0   0.0   0.0   ----- 
Mon 11:30    W 15/ 24  17.6  3.9  ------    0.0   0.0   0.0   0.0   ----- 
Mon 12:00  WSW 19/ 32  17.9  3.4  ------    0.0   0.0   0.0   0.0   ----- 
Mon 12:30  WSW 15/ 24  18.8  3.4  ------    0.0   0.0   0.0   0.0   ----- 
Mon 13:00  WSW 19/ 30  19.1  3.3  ------    0.0   0.0   0.0   0.0   ----- 
Mon 13:30  WSW 17/ 33  20.6  4.6  ------    0.0   0.0   0.0   0.0   ----- 
Mon 14:00  WSW 17/ 26  20.0  3.3  ------    0.0   0.0   0.0   0.0   ----- 
Mon 14:30  WSW 17/ 26  20.9  4.0  ------    0.0   0.0   0.0   0.0   ----- 
Mon 15:00  WSW 17/ 28  20.7  4.3  ------    0.0   0.0   0.0   0.0   ----- 
Mon 15:30  WNW  7/ 13  20.9  4.5  ------    0.0   0.0   0.0   0.0   ----- 
Mon 16:00  WNW 13/ 19  20.7  3.4  ------    0.0   0.0   0.0   0.0   ----- 
Mon 16:30  SSW 15/ 24  20.9  4.0  ------    0.0   0.0   0.0   0.0   ----- 

OUSE FIRE STATION

Site: 095048
Alt: 90.0m
44km NW of NEW NORFOLK


  Time     Wind        Temp  DP   Baro     Rain since   Rain past  Vis(m), Cloud(base in m), Weather
  local        km/h                         9am  last   hr   10m    
Mon 11:00    W 11/ 19  15.7  1.8  1019.2    0.0   0.0   0.0   0.0   ----- 
Mon 11:30    N 11/ 20  16.8  2.0  1019.2    0.0   0.0   0.0   0.0   ----- 
Mon 12:00   NW 13/ 20  18.1  3.2  1019.1    0.0   0.0   0.0   0.0   ----- 
Mon 12:30  WSW 22/ 33  18.4  2.3  1019.1    0.0   0.0   0.0   0.0   ----- 
Mon 13:00  WSW 17/ 30  19.3  3.1  1018.9    0.0   0.0   0.0   0.0   ----- 
Mon 13:30   SW 13/ 28  20.0  2.4  1018.9    0.0   0.0   0.0   0.0   ----- 
Mon 14:00    W 13/ 20  20.3  3.1  1019.0    0.0   0.0   0.0   0.0   ----- 
Mon 14:30  WSW 13/ 20  20.7  3.0  1018.9    0.0   0.0   0.0   0.0   ----- 
Mon 15:00  WSW 13/ 26  20.2  2.5  1018.8    0.0   0.0   0.0   0.0   ----- 
Mon 15:30  WSW 13/ 24  21.0  2.8  1018.6    0.0   0.0   0.0   0.0   ----- 
Mon 16:00  NNW 19/ 26  19.8  2.6  1018.4    0.0   0.0   0.0   0.0   ----- 
Mon 16:30  WSW 13/ 22  20.6  2.9  1018.3    0.0   0.0   0.0   0.0   -----